sensor_id;sensor_type;location;lat;lon;timestamp;pressure;altitude;pressure_sealevel;temperature;humidity
37972;BME280;23794;48.234;8.344;2023-08-07T00:02:00;94332.88;;;9.28;83.38
37972;BME280;23794;48.234;8.344;2023-08-07T00:04:27;94342.63;;;9.22;84.09
37972;BME280;23794;48.234;8.344;2023-08-07T00:06:54;94343.81;;;9.28;83.55
37972;BME280;23794;48.234;8.344;2023-08-07T00:09:21;94337.19;;;9.33;83.72
37972;BME280;23794;48.234;8.344;2023-08-07T00:11:48;94337.19;;;9.33;83.88
37972;BME280;23794;48.234;8.344;2023-08-07T00:14:15;94333.28;;;9.30;83.68
37972;BME280;23794;48.234;8.344;2023-08-07T00:16:42;94337.19;;;9.33;83.80
37972;BME280;23794;48.234;8.344;2023-08-07T00:19:10;94335.63;;;9.35;83.49
37972;BME280;23794;48.234;8.344;2023-08-07T00:21:37;94342.66;;;9.36;83.99
37972;BME280;23794;48.234;8.344;2023-08-07T00:24:04;94336.38;;;9.36;83.61
37972;BME280;23794;48.234;8.344;2023-08-07T00:26:31;94339.16;;;9.39;83.73
37972;BME280;23794;48.234;8.344;2023-08-07T00:28:58;94337.97;;;9.40;83.28
37972;BME280;23794;48.234;8.344;2023-08-07T00:31:25;94336.03;;;9.44;83.90
37972;BME280;23794;48.234;8.344;2023-08-07T00:33:52;94330.94;;;9.39;83.27
37972;BME280;23794;48.234;8.344;2023-08-07T00:36:22;94332.91;;;9.46;82.89
37972;BME280;23794;48.234;8.344;2023-08-07T00:38:49;94322.75;;;9.39;82.49
37972;BME280;23794;48.234;8.344;2023-08-07T00:41:17;94334.88;;;9.45;82.38
37972;BME280;23794;48.234;8.344;2023-08-07T00:43:44;94339.53;;;9.41;82.88
37972;BME280;23794;48.234;8.344;2023-08-07T00:46:11;94343.44;;;9.44;82.84
37972;BME280;23794;48.234;8.344;2023-08-07T00:48:38;94331.75;;;9.43;83.21
37972;BME280;23794;48.234;8.344;2023-08-07T00:51:07;94340.34;;;9.42;82.72
37972;BME280;23794;48.234;8.344;2023-08-07T00:53:37;94329.00;;;9.47;82.78
37972;BME280;23794;48.234;8.344;2023-08-07T00:56:05;94341.88;;;9.39;82.67
37972;BME280;23794;48.234;8.344;2023-08-07T00:58:33;94337.94;;;9.33;83.03
37972;BME280;23794;48.234;8.344;2023-08-07T01:01:00;94340.69;;;9.33;83.21
37972;BME280;23794;48.234;8.344;2023-08-07T01:03:28;94332.88;;;9.35;83.12
37972;BME280;23794;48.234;8.344;2023-08-07T01:05:55;94335.22;;;9.33;84.00
37972;BME280;23794;48.234;8.344;2023-08-07T01:08:22;94342.25;;;9.34;83.72
37972;BME280;23794;48.234;8.344;2023-08-07T01:13:28;94335.22;;;9.33;82.93
37972;BME280;23794;48.234;8.344;2023-08-07T01:16:13;94348.88;;;9.26;82.67
37972;BME280;23794;48.234;8.344;2023-08-07T01:18:47;94339.91;;;9.29;82.59
37972;BME280;23794;48.234;8.344;2023-08-07T01:21:19;94342.66;;;9.29;83.01
37972;BME280;23794;48.234;8.344;2023-08-07T01:23:47;94334.44;;;9.29;82.31
37972;BME280;23794;48.234;8.344;2023-08-07T01:26:19;94343.00;;;9.31;82.81
37972;BME280;23794;48.234;8.344;2023-08-07T01:32:05;94351.97;;;9.06;83.20
37972;BME280;23794;48.234;8.344;2023-08-07T01:34:35;94343.00;;;9.06;82.81
37972;BME280;23794;48.234;8.344;2023-08-07T01:37:04;94351.59;;;9.11;82.67
37972;BME280;23794;48.234;8.344;2023-08-07T01:39:34;94348.84;;;9.01;82.90
37972;BME280;23794;48.234;8.344;2023-08-07T01:42:03;94347.28;;;8.99;82.62
37972;BME280;23794;48.234;8.344;2023-08-07T01:44:31;94350.81;;;9.00;83.25
37972;BME280;23794;48.234;8.344;2023-08-07T01:46:58;94344.53;;;8.96;83.08
37972;BME280;23794;48.234;8.344;2023-08-07T01:49:25;94355.44;;;8.89;82.96
37972;BME280;23794;48.234;8.344;2023-08-07T01:51:52;94351.94;;;8.88;82.69
37972;BME280;23794;48.234;8.344;2023-08-07T01:54:19;94354.69;;;8.88;82.99
37972;BME280;23794;48.234;8.344;2023-08-07T01:56:48;94351.53;;;8.86;83.06
37972;BME280;23794;48.234;8.344;2023-08-07T01:59:19;94354.66;;;8.81;82.67
37972;BME280;23794;48.234;8.344;2023-08-07T02:01:55;94361.28;;;8.80;82.93
37972;BME280;23794;48.234;8.344;2023-08-07T02:04:21;94355.41;;;8.74;83.37
37972;BME280;23794;48.234;8.344;2023-08-07T02:06:48;94364.75;;;8.70;83.06
37972;BME280;23794;48.234;8.344;2023-08-07T02:09:15;94357.72;;;8.65;82.20
37972;BME280;23794;48.234;8.344;2023-08-07T02:11:41;94363.16;;;8.61;83.31
37972;BME280;23794;48.234;8.344;2023-08-07T02:14:09;94373.66;;;8.59;83.10
37972;BME280;23794;48.234;8.344;2023-08-07T02:16:36;94367.44;;;8.59;83.30
37972;BME280;23794;48.234;8.344;2023-08-07T02:19:02;94366.69;;;8.62;83.28
37972;BME280;23794;48.234;8.344;2023-08-07T02:21:29;94364.69;;;8.51;83.69
37972;BME280;23794;48.234;8.344;2023-08-07T02:23:56;94375.63;;;8.59;82.77
37972;BME280;23794;48.234;8.344;2023-08-07T02:26:22;94369.38;;;8.55;82.90
37972;BME280;23794;48.234;8.344;2023-08-07T02:28:49;94368.13;;;8.38;83.19
37972;BME280;23794;48.234;8.344;2023-08-07T02:31:16;94372.84;;;8.44;83.36
37972;BME280;23794;48.234;8.344;2023-08-07T02:33:42;94371.69;;;8.49;83.33
37972;BME280;23794;48.234;8.344;2023-08-07T02:36:09;94374.81;;;8.47;82.95
37972;BME280;23794;48.234;8.344;2023-08-07T02:38:35;94365.41;;;8.41;83.35
37972;BME280;23794;48.234;8.344;2023-08-07T02:41:02;94370.50;;;8.39;83.35
37972;BME280;23794;48.234;8.344;2023-08-07T02:43:29;94377.88;;;8.39;83.65
37972;BME280;23794;48.234;8.344;2023-08-07T02:45:59;94367.38;;;8.41;83.71
37972;BME280;23794;48.234;8.344;2023-08-07T02:48:26;94372.44;;;8.42;83.55
37972;BME280;23794;48.234;8.344;2023-08-07T02:50:52;94374.38;;;8.38;84.12
37972;BME280;23794;48.234;8.344;2023-08-07T02:53:19;94375.16;;;8.39;84.25
37972;BME280;23794;48.234;8.344;2023-08-07T02:55:46;94371.66;;;8.38;84.09
37972;BME280;23794;48.234;8.344;2023-08-07T02:58:13;94380.19;;;8.36;84.24
37972;BME280;23794;48.234;8.344;2023-08-07T03:00:39;94381.78;;;8.41;84.32
37972;BME280;23794;48.234;8.344;2023-08-07T03:03:06;94381.44;;;8.43;83.66
37972;BME280;23794;48.234;8.344;2023-08-07T03:05:33;94376.72;;;8.43;83.41
37972;BME280;23794;48.234;8.344;2023-08-07T03:07:59;94373.19;;;8.35;83.78
37972;BME280;23794;48.234;8.344;2023-08-07T03:10:26;94375.19;;;8.46;84.08
37972;BME280;23794;48.234;8.344;2023-08-07T03:12:52;94385.38;;;8.52;83.93
37972;BME280;23794;48.234;8.344;2023-08-07T03:15:19;94377.59;;;8.58;83.55
37972;BME280;23794;48.234;8.344;2023-08-07T03:17:46;94391.59;;;8.57;84.89
37972;BME280;23794;48.234;8.344;2023-08-07T03:20:13;94377.63;;;8.65;83.73
37972;BME280;23794;48.234;8.344;2023-08-07T03:22:39;94384.25;;;8.64;83.78
37972;BME280;23794;48.234;8.344;2023-08-07T03:25:06;94381.94;;;8.70;83.50
37972;BME280;23794;48.234;8.344;2023-08-07T03:27:33;94381.53;;;8.72;83.27
37972;BME280;23794;48.234;8.344;2023-08-07T03:30:00;94383.88;;;8.73;84.24
37972;BME280;23794;48.234;8.344;2023-08-07T03:32:28;94388.59;;;8.80;83.65
37972;BME280;23794;48.234;8.344;2023-08-07T03:34:55;94383.16;;;8.87;82.99
37972;BME280;23794;48.234;8.344;2023-08-07T03:37:22;94380.81;;;8.89;83.19
37972;BME280;23794;48.234;8.344;2023-08-07T03:39:49;94381.97;;;8.85;83.19
37972;BME280;23794;48.234;8.344;2023-08-07T03:42:16;94374.16;;;8.87;83.07
37972;BME280;23794;48.234;8.344;2023-08-07T03:44:45;94380.44;;;8.87;83.29
37972;BME280;23794;48.234;8.344;2023-08-07T03:47:12;94381.16;;;8.80;83.68
37972;BME280;23794;48.234;8.344;2023-08-07T03:49:38;94383.56;;;8.86;83.73
37972;BME280;23794;48.234;8.344;2023-08-07T03:52:05;94383.16;;;8.83;84.04
37972;BME280;23794;48.234;8.344;2023-08-07T03:54:32;94379.25;;;8.81;83.98
37972;BME280;23794;48.234;8.344;2023-08-07T03:56:59;94380.41;;;8.80;84.08
37972;BME280;23794;48.234;8.344;2023-08-07T03:59:25;94389.00;;;8.86;83.71
37972;BME280;23794;48.234;8.344;2023-08-07T04:01:52;94385.47;;;8.85;84.31
37972;BME280;23794;48.234;8.344;2023-08-07T04:04:19;94393.31;;;8.94;83.24
37972;BME280;23794;48.234;8.344;2023-08-07T04:06:45;94396.81;;;8.91;83.72
37972;BME280;23794;48.234;8.344;2023-08-07T04:09:13;94389.78;;;8.86;83.47
37972;BME280;23794;48.234;8.344;2023-08-07T04:11:40;94386.28;;;8.86;84.03
37972;BME280;23794;48.234;8.344;2023-08-07T04:14:06;94393.28;;;8.87;83.68
37972;BME280;23794;48.234;8.344;2023-08-07T04:16:33;94388.22;;;8.85;84.33
37972;BME280;23794;48.234;8.344;2023-08-07T04:19:00;94390.19;;;8.92;83.28
37972;BME280;23794;48.234;8.344;2023-08-07T04:21:26;94387.47;;;8.95;83.10
37972;BME280;23794;48.234;8.344;2023-08-07T04:23:53;94390.59;;;9.01;82.95
37972;BME280;23794;48.234;8.344;2023-08-07T04:26:19;94389.06;;;9.00;82.85
37972;BME280;23794;48.234;8.344;2023-08-07T04:28:46;94391.78;;;9.00;83.46
37972;BME280;23794;48.234;8.344;2023-08-07T04:31:13;94388.66;;;9.05;83.56
37972;BME280;23794;48.234;8.344;2023-08-07T04:33:40;94392.59;;;9.11;83.06
37972;BME280;23794;48.234;8.344;2023-08-07T04:36:06;94387.88;;;9.08;83.03
37972;BME280;23794;48.234;8.344;2023-08-07T04:38:33;94400.38;;;9.06;83.44
37972;BME280;23794;48.234;8.344;2023-08-07T04:41:00;94394.13;;;9.05;82.94
37972;BME280;23794;48.234;8.344;2023-08-07T04:43:26;94396.88;;;9.12;82.95
37972;BME280;23794;48.234;8.344;2023-08-07T04:45:54;94400.38;;;9.09;82.98
37972;BME280;23794;48.234;8.344;2023-08-07T04:48:21;94402.34;;;9.12;82.78
37972;BME280;23794;48.234;8.344;2023-08-07T04:50:48;94398.06;;;9.19;82.67
37972;BME280;23794;48.234;8.344;2023-08-07T04:53:16;94409.41;;;9.21;82.84
37972;BME280;23794;48.234;8.344;2023-08-07T04:55:43;94417.22;;;9.26;82.74
37972;BME280;23794;48.234;8.344;2023-08-07T04:58:09;94410.97;;;9.29;82.95
37972;BME280;23794;48.234;8.344;2023-08-07T05:00:36;94408.66;;;9.35;83.29
37972;BME280;23794;48.234;8.344;2023-08-07T05:03:03;94415.28;;;9.30;82.53
37972;BME280;23794;48.234;8.344;2023-08-07T05:05:31;94425.03;;;9.31;82.49
37972;BME280;23794;48.234;8.344;2023-08-07T05:07:58;94421.94;;;9.36;81.31
37972;BME280;23794;48.234;8.344;2023-08-07T05:10:25;94419.19;;;9.29;82.78
37972;BME280;23794;48.234;8.344;2023-08-07T05:12:51;94420.75;;;9.34;82.58
37972;BME280;23794;48.234;8.344;2023-08-07T05:15:24;94422.69;;;9.33;81.88
37972;BME280;23794;48.234;8.344;2023-08-07T05:17:52;94424.66;;;9.33;82.39
37972;BME280;23794;48.234;8.344;2023-08-07T05:20:19;94422.72;;;9.37;82.49
37972;BME280;23794;48.234;8.344;2023-08-07T05:22:45;94423.91;;;9.46;82.50
37972;BME280;23794;48.234;8.344;2023-08-07T05:25:12;94426.66;;;9.46;81.90
37972;BME280;23794;48.234;8.344;2023-08-07T05:27:42;94422.75;;;9.48;82.15
37972;BME280;23794;48.234;8.344;2023-08-07T05:30:10;94421.97;;;9.51;81.97
37972;BME280;23794;48.234;8.344;2023-08-07T05:32:36;94422.75;;;9.51;82.11
37972;BME280;23794;48.234;8.344;2023-08-07T05:35:07;94425.91;;;9.64;82.02
37972;BME280;23794;48.234;8.344;2023-08-07T05:37:34;94420.81;;;9.81;81.85
37972;BME280;23794;48.234;8.344;2023-08-07T05:40:02;94420.06;;;9.87;81.41
37972;BME280;23794;48.234;8.344;2023-08-07T05:42:29;94424.34;;;9.88;81.02
37972;BME280;23794;48.234;8.344;2023-08-07T05:44:55;94419.66;;;10.00;81.86
37972;BME280;23794;48.234;8.344;2023-08-07T05:47:22;94415.75;;;10.01;80.53
37972;BME280;23794;48.234;8.344;2023-08-07T05:49:48;94419.66;;;10.00;81.52
37972;BME280;23794;48.234;8.344;2023-08-07T05:52:16;94414.19;;;9.96;81.38
37972;BME280;23794;48.234;8.344;2023-08-07T05:54:43;94423.56;;;10.02;80.54
37972;BME280;23794;48.234;8.344;2023-08-07T05:57:10;94419.25;;;10.01;80.02
37972;BME280;23794;48.234;8.344;2023-08-07T05:59:37;94421.59;;;9.92;80.50
37972;BME280;23794;48.234;8.344;2023-08-07T06:02:03;94429.81;;;9.88;81.55
37972;BME280;23794;48.234;8.344;2023-08-07T06:04:31;94432.53;;;9.96;81.26
37972;BME280;23794;48.234;8.344;2023-08-07T06:06:57;94438.00;;;9.99;80.68
37972;BME280;23794;48.234;8.344;2023-08-07T06:09:24;94432.16;;;10.12;80.44
37972;BME280;23794;48.234;8.344;2023-08-07T06:11:51;94429.00;;;10.17;80.09
37972;BME280;23794;48.234;8.344;2023-08-07T06:14:17;94429.81;;;10.17;79.63
37972;BME280;23794;48.234;8.344;2023-08-07T06:16:44;94428.63;;;10.18;80.27
37972;BME280;23794;48.234;8.344;2023-08-07T06:19:11;94432.16;;;10.12;79.51
37972;BME280;23794;48.234;8.344;2023-08-07T06:21:56;94434.50;;;10.13;79.79
37972;BME280;23794;48.234;8.344;2023-08-07T06:24:24;94428.25;;;10.09;80.19
37972;BME280;23794;48.234;8.344;2023-08-07T06:26:52;94438.41;;;10.12;78.86
37972;BME280;23794;48.234;8.344;2023-08-07T06:29:18;94439.56;;;10.00;78.43
37972;BME280;23794;48.234;8.344;2023-08-07T06:31:45;94431.75;;;10.17;79.56
37972;BME280;23794;48.234;8.344;2023-08-07T06:34:11;94440.34;;;10.26;78.82
37972;BME280;23794;48.234;8.344;2023-08-07T06:36:38;94440.38;;;10.19;77.28
37972;BME280;23794;48.234;8.344;2023-08-07T06:39:05;94442.69;;;10.35;77.64
37972;BME280;23794;48.234;8.344;2023-08-07T06:41:32;94450.13;;;10.38;76.41
37972;BME280;23794;48.234;8.344;2023-08-07T06:43:58;94432.09;;;10.55;77.65
37972;BME280;23794;48.234;8.344;2023-08-07T06:46:25;94435.16;;;10.71;77.19
37972;BME280;23794;48.234;8.344;2023-08-07T06:48:54;94444.97;;;10.65;75.54
37972;BME280;23794;48.234;8.344;2023-08-07T06:51:20;94448.13;;;10.53;77.15
37972;BME280;23794;48.234;8.344;2023-08-07T06:53:47;94438.34;;;10.55;77.23
37972;BME280;23794;48.234;8.344;2023-08-07T06:56:14;94439.09;;;10.70;76.99
37972;BME280;23794;48.234;8.344;2023-08-07T06:58:40;94438.31;;;10.70;76.90
37972;BME280;23794;48.234;8.344;2023-08-07T07:01:07;94439.84;;;10.82;77.27
37972;BME280;23794;48.234;8.344;2023-08-07T07:03:34;94445.31;;;10.82;77.32
37972;BME280;23794;48.234;8.344;2023-08-07T07:06:00;94434.69;;;11.02;76.82
37972;BME280;23794;48.234;8.344;2023-08-07T07:08:27;94462.88;;;11.06;75.94
37972;BME280;23794;48.234;8.344;2023-08-07T07:10:54;94454.31;;;10.82;76.23
37972;BME280;23794;48.234;8.344;2023-08-07T07:13:20;94463.38;;;10.50;77.47
37972;BME280;23794;48.234;8.344;2023-08-07T07:15:52;94469.66;;;10.51;78.79
37972;BME280;23794;48.234;8.344;2023-08-07T07:18:19;94456.72;;;10.55;78.98
37972;BME280;23794;48.234;8.344;2023-08-07T07:20:45;94465.34;;;10.61;78.18
37972;BME280;23794;48.234;8.344;2023-08-07T07:23:12;94472.38;;;10.58;79.75
37972;BME280;23794;48.234;8.344;2023-08-07T07:25:39;94477.47;;;10.56;78.44
37972;BME280;23794;48.234;8.344;2023-08-07T07:28:05;94475.13;;;10.65;77.87
37972;BME280;23794;48.234;8.344;2023-08-07T07:30:32;94470.03;;;10.56;78.76
37972;BME280;23794;48.234;8.344;2023-08-07T07:32:59;94475.47;;;10.74;78.44
37972;BME280;23794;48.234;8.344;2023-08-07T07:35:25;94473.09;;;10.84;78.37
37972;BME280;23794;48.234;8.344;2023-08-07T07:37:52;94481.63;;;11.15;78.02
37972;BME280;23794;48.234;8.344;2023-08-07T07:40:19;94469.00;;;11.35;77.45
37972;BME280;23794;48.234;8.344;2023-08-07T07:42:45;94477.91;;;11.58;77.57
37972;BME280;23794;48.234;8.344;2023-08-07T07:45:12;94474.66;;;11.74;77.36
37972;BME280;23794;48.234;8.344;2023-08-07T07:47:39;94480.34;;;12.05;75.69
37972;BME280;23794;48.234;8.344;2023-08-07T07:50:07;94481.84;;;12.13;74.57
37972;BME280;23794;48.234;8.344;2023-08-07T07:52:34;94463.56;;;11.92;75.46
37972;BME280;23794;48.234;8.344;2023-08-07T07:55:01;94476.84;;;12.00;75.16
37972;BME280;23794;48.234;8.344;2023-08-07T07:57:28;94477.84;;;12.25;74.18
37972;BME280;23794;48.234;8.344;2023-08-07T07:59:54;94491.84;;;12.38;72.13
37972;BME280;23794;48.234;8.344;2023-08-07T08:02:22;94485.00;;;12.11;71.96
37972;BME280;23794;48.234;8.344;2023-08-07T08:04:51;94495.72;;;11.91;73.21
37972;BME280;23794;48.234;8.344;2023-08-07T08:07:18;94498.06;;;11.93;73.58
37972;BME280;23794;48.234;8.344;2023-08-07T08:09:45;94498.53;;;11.84;73.19
37972;BME280;23794;48.234;8.344;2023-08-07T08:12:11;94512.41;;;11.59;73.59
37972;BME280;23794;48.234;8.344;2023-08-07T08:14:38;94501.88;;;11.50;74.83
37972;BME280;23794;48.234;8.344;2023-08-07T08:17:21;94514.31;;;11.65;74.50
37972;BME280;23794;48.234;8.344;2023-08-07T08:19:50;94524.84;;;11.78;73.72
37972;BME280;23794;48.234;8.344;2023-08-07T08:22:17;94498.88;;;11.90;72.99
37972;BME280;23794;48.234;8.344;2023-08-07T08:24:44;94509.03;;;11.96;74.09
37972;BME280;23794;48.234;8.344;2023-08-07T08:27:10;94516.81;;;12.05;73.59
37972;BME280;23794;48.234;8.344;2023-08-07T08:29:37;94511.28;;;12.12;73.36
37972;BME280;23794;48.234;8.344;2023-08-07T08:32:04;94521.31;;;12.34;73.93
37972;BME280;23794;48.234;8.344;2023-08-07T08:34:31;94517.75;;;12.37;73.36
37972;BME280;23794;48.234;8.344;2023-08-07T08:36:57;94508.13;;;12.14;74.92
37972;BME280;23794;48.234;8.344;2023-08-07T08:39:24;94515.25;;;12.04;74.62
37972;BME280;23794;48.234;8.344;2023-08-07T08:41:51;94514.19;;;11.87;72.71
37972;BME280;23794;48.234;8.344;2023-08-07T08:44:19;94529.47;;;11.88;72.89
37972;BME280;23794;48.234;8.344;2023-08-07T08:46:49;94519.50;;;12.16;73.20
37972;BME280;23794;48.234;8.344;2023-08-07T08:49:28;94526.13;;;12.22;72.07
37972;BME280;23794;48.234;8.344;2023-08-07T08:51:56;94520.88;;;12.42;72.01
37972;BME280;23794;48.234;8.344;2023-08-07T08:54:23;94528.66;;;12.51;71.88
37972;BME280;23794;48.234;8.344;2023-08-07T08:56:50;94525.75;;;12.16;71.41
37972;BME280;23794;48.234;8.344;2023-08-07T08:59:17;94534.22;;;11.80;73.25
37972;BME280;23794;48.234;8.344;2023-08-07T09:01:46;94543.75;;;11.54;72.41
37972;BME280;23794;48.234;8.344;2023-08-07T09:04:14;94544.63;;;11.33;72.51
37972;BME280;23794;48.234;8.344;2023-08-07T09:06:41;94545.06;;;11.24;74.19
37972;BME280;23794;48.234;8.344;2023-08-07T09:09:11;94539.16;;;11.26;75.12
37972;BME280;23794;48.234;8.344;2023-08-07T09:11:44;94550.50;;;11.35;76.39
37972;BME280;23794;48.234;8.344;2023-08-07T09:14:15;94543.34;;;11.56;74.48
37972;BME280;23794;48.234;8.344;2023-08-07T09:16:43;94542.75;;;11.97;74.32
37972;BME280;23794;48.234;8.344;2023-08-07T09:19:10;94540.81;;;12.50;71.30
37972;BME280;23794;48.234;8.344;2023-08-07T09:21:37;94535.66;;;12.59;70.85
37972;BME280;23794;48.234;8.344;2023-08-07T09:24:04;94532.94;;;12.56;70.35
37972;BME280;23794;48.234;8.344;2023-08-07T09:26:32;94536.97;;;12.37;70.96
37972;BME280;23794;48.234;8.344;2023-08-07T09:28:59;94536.00;;;12.12;71.90
37972;BME280;23794;48.234;8.344;2023-08-07T09:31:26;94542.66;;;12.11;72.20
37972;BME280;23794;48.234;8.344;2023-08-07T09:33:53;94551.38;;;11.95;71.30
37972;BME280;23794;48.234;8.344;2023-08-07T09:36:20;94533.75;;;11.93;71.42
37972;BME280;23794;48.234;8.344;2023-08-07T09:38:49;94539.25;;;11.93;72.02
37972;BME280;23794;48.234;8.344;2023-08-07T09:41:18;94546.78;;;11.78;72.80
37972;BME280;23794;48.234;8.344;2023-08-07T09:43:45;94547.19;;;11.76;73.04
37972;BME280;23794;48.234;8.344;2023-08-07T09:46:13;94544.41;;;11.83;73.63
37972;BME280;23794;48.234;8.344;2023-08-07T09:48:41;94547.31;;;12.18;72.84
37972;BME280;23794;48.234;8.344;2023-08-07T09:51:08;94542.13;;;12.31;72.62
37972;BME280;23794;48.234;8.344;2023-08-07T09:53:35;94541.59;;;12.54;70.41
37972;BME280;23794;48.234;8.344;2023-08-07T09:56:02;94547.97;;;12.86;70.90
37972;BME280;23794;48.234;8.344;2023-08-07T09:58:29;94549.69;;;13.49;70.97
37972;BME280;23794;48.234;8.344;2023-08-07T10:01:02;94545.69;;;13.53;67.32
37972;BME280;23794;48.234;8.344;2023-08-07T10:03:31;94541.34;;;13.21;69.34
37972;BME280;23794;48.234;8.344;2023-08-07T10:05:58;94550.75;;;13.24;70.11
37972;BME280;23794;48.234;8.344;2023-08-07T10:08:25;94552.53;;;13.03;69.62
37972;BME280;23794;48.234;8.344;2023-08-07T10:10:52;94560.97;;;12.85;69.87
37972;BME280;23794;48.234;8.344;2023-08-07T10:13:21;94555.59;;;12.67;69.31
37972;BME280;23794;48.234;8.344;2023-08-07T10:16:04;94565.94;;;12.52;73.00
37972;BME280;23794;48.234;8.344;2023-08-07T10:18:31;94560.94;;;12.40;74.97
37972;BME280;23794;48.234;8.344;2023-08-07T10:21:00;94562.44;;;12.44;71.86
37972;BME280;23794;48.234;8.344;2023-08-07T10:23:31;94558.41;;;12.60;70.42
37972;BME280;23794;48.234;8.344;2023-08-07T10:26:03;94557.47;;;12.77;70.71
37972;BME280;23794;48.234;8.344;2023-08-07T10:28:33;94566.91;;;13.18;69.28
37972;BME280;23794;48.234;8.344;2023-08-07T10:31:08;94568.56;;;13.08;68.67
37972;BME280;23794;48.234;8.344;2023-08-07T10:33:36;94562.50;;;13.59;66.59
37972;BME280;23794;48.234;8.344;2023-08-07T10:36:11;94555.69;;;14.02;65.86
37972;BME280;23794;48.234;8.344;2023-08-07T10:38:37;94566.19;;;13.83;64.25
37972;BME280;23794;48.234;8.344;2023-08-07T10:41:08;94566.19;;;13.83;63.77
37972;BME280;23794;48.234;8.344;2023-08-07T10:43:43;94571.13;;;13.96;64.63
37972;BME280;23794;48.234;8.344;2023-08-07T10:46:17;94575.13;;;13.91;65.17
37972;BME280;23794;48.234;8.344;2023-08-07T10:48:55;94570.00;;;13.93;62.99
37972;BME280;23794;48.234;8.344;2023-08-07T10:51:29;94574.28;;;14.25;63.13
37972;BME280;23794;48.234;8.344;2023-08-07T10:53:57;94572.13;;;14.36;62.53
37972;BME280;23794;48.234;8.344;2023-08-07T10:56:32;94572.88;;;14.41;62.88
37972;BME280;23794;48.234;8.344;2023-08-07T10:59:11;94570.59;;;14.04;60.96
37972;BME280;23794;48.234;8.344;2023-08-07T11:04:11;94590.59;;;13.81;65.46
37972;BME280;23794;48.234;8.344;2023-08-07T11:06:40;94576.03;;;13.81;65.16
37972;BME280;23794;48.234;8.344;2023-08-07T11:09:08;94574.44;;;13.83;63.88
37972;BME280;23794;48.234;8.344;2023-08-07T11:11:53;94578.09;;;13.73;62.75
37972;BME280;23794;48.234;8.344;2023-08-07T11:14:19;94572.91;;;14.10;63.23
37972;BME280;23794;48.234;8.344;2023-08-07T11:16:47;94572.00;;;14.71;62.11
37972;BME280;23794;48.234;8.344;2023-08-07T11:19:16;94562.28;;;15.10;59.96
37972;BME280;23794;48.234;8.344;2023-08-07T11:21:43;94563.66;;;15.22;61.09
37972;BME280;23794;48.234;8.344;2023-08-07T11:24:12;94564.53;;;15.39;59.72
37972;BME280;23794;48.234;8.344;2023-08-07T11:26:41;94562.97;;;15.78;59.95
37972;BME280;23794;48.234;8.344;2023-08-07T11:29:08;94557.44;;;16.52;58.73
37972;BME280;23794;48.234;8.344;2023-08-07T11:31:35;94550.09;;;17.11;58.16
37972;BME280;23794;48.234;8.344;2023-08-07T11:34:02;94547.72;;;17.10;55.90
37972;BME280;23794;48.234;8.344;2023-08-07T11:36:29;94545.50;;;16.71;53.46
37972;BME280;23794;48.234;8.344;2023-08-07T11:38:56;94555.34;;;16.23;55.72
37972;BME280;23794;48.234;8.344;2023-08-07T11:41:23;94552.75;;;15.95;57.17
37972;BME280;23794;48.234;8.344;2023-08-07T11:43:49;94540.88;;;15.99;55.71
37972;BME280;23794;48.234;8.344;2023-08-07T11:46:16;94539.75;;;16.13;56.19
37972;BME280;23794;48.234;8.344;2023-08-07T11:48:44;94547.53;;;16.01;55.02
37972;BME280;23794;48.234;8.344;2023-08-07T11:51:11;94560.88;;;16.72;53.26
37972;BME280;23794;48.234;8.344;2023-08-07T11:53:40;94537.03;;;16.79;52.88
37972;BME280;23794;48.234;8.344;2023-08-07T11:56:08;94546.28;;;16.72;54.93
37972;BME280;23794;48.234;8.344;2023-08-07T11:58:40;94557.75;;;16.21;55.36
37972;BME280;23794;48.234;8.344;2023-08-07T12:01:11;94555.97;;;16.64;54.50
37972;BME280;23794;48.234;8.344;2023-08-07T12:03:41;94547.75;;;16.77;52.37
37972;BME280;23794;48.234;8.344;2023-08-07T12:06:08;94558.41;;;16.08;52.39
37972;BME280;23794;48.234;8.344;2023-08-07T12:11:06;94552.47;;;15.70;54.43
37972;BME280;23794;48.234;8.344;2023-08-07T12:13:33;94565.00;;;15.54;56.09
37972;BME280;23794;48.234;8.344;2023-08-07T12:16:02;94551.38;;;16.24;53.09
37972;BME280;23794;48.234;8.344;2023-08-07T12:18:32;94546.94;;;16.93;52.13
37972;BME280;23794;48.234;8.344;2023-08-07T12:21:01;94535.81;;;17.42;52.59
37972;BME280;23794;48.234;8.344;2023-08-07T12:23:27;94545.50;;;17.63;51.60
37972;BME280;23794;48.234;8.344;2023-08-07T12:25:55;94537.03;;;17.83;49.41
37972;BME280;23794;48.234;8.344;2023-08-07T12:28:21;94542.88;;;17.43;49.34
37972;BME280;23794;48.234;8.344;2023-08-07T12:30:48;94553.84;;;17.76;50.33
37972;BME280;23794;48.234;8.344;2023-08-07T12:33:16;94549.50;;;18.30;49.32
37972;BME280;23794;48.234;8.344;2023-08-07T12:35:43;94541.81;;;18.73;48.57
37972;BME280;23794;48.234;8.344;2023-08-07T12:38:10;94532.28;;;18.74;45.22
37972;BME280;23794;48.234;8.344;2023-08-07T12:40:37;94534.28;;;18.74;47.06
37972;BME280;23794;48.234;8.344;2023-08-07T12:43:06;94547.28;;;17.99;44.99
37972;BME280;23794;48.234;8.344;2023-08-07T12:45:33;94543.78;;;17.40;49.04
37972;BME280;23794;48.234;8.344;2023-08-07T12:48:03;94543.41;;;18.10;46.29
37972;BME280;23794;48.234;8.344;2023-08-07T12:50:30;94551.03;;;17.63;49.34
37972;BME280;23794;48.234;8.344;2023-08-07T12:52:57;94541.09;;;17.36;51.53
37972;BME280;23794;48.234;8.344;2023-08-07T12:55:23;94554.59;;;17.64;48.32
37972;BME280;23794;48.234;8.344;2023-08-07T12:57:52;94541.78;;;17.41;48.24
37972;BME280;23794;48.234;8.344;2023-08-07T13:00:19;94538.75;;;17.64;47.97
37972;BME280;23794;48.234;8.344;2023-08-07T13:02:46;94536.84;;;18.42;47.83
37972;BME280;23794;48.234;8.344;2023-08-07T13:05:14;94528.41;;;18.85;45.39
37972;BME280;23794;48.234;8.344;2023-08-07T13:07:41;94546.66;;;19.08;43.85
37972;BME280;23794;48.234;8.344;2023-08-07T13:10:09;94531.31;;;18.68;45.02
37972;BME280;23794;48.234;8.344;2023-08-07T13:12:37;94546.78;;;17.88;45.78
37972;BME280;23794;48.234;8.344;2023-08-07T13:15:05;94552.31;;;17.16;48.61
37972;BME280;23794;48.234;8.344;2023-08-07T13:17:33;94546.75;;;17.33;49.47
37972;BME280;23794;48.234;8.344;2023-08-07T13:20:01;94543.44;;;18.48;49.02